메인 페이지
METAR-TAF:

METAR-TAF

공항 :

마드리드 바라하스 국제공항

마드리드, 스페인

위도: 40-27N, 경도: 003-33W, 고도: 609m

현재 날씨관측

예보는 11분 전, 09:30시(UTC)에 발표되었습니다.
남남동4kt풍과 서남서풍을 오가는
온도 19°C
습도 52%
기압 1016 hPa
시정 10km 이상
고도 6000ft 상공 구름 조금
고도 8000ft 상공 구름 보통

METAR: LEMD 200930Z 16004KT 100V240 9999 FEW060 SCT080 19/09 Q1016 BECMG 15010KT

시각: 11:41 (09:41 UTC)

예보

예보는 4 시간 41분 전, 05:00시(UTC)에 발표되었습니다.
예보 대상 시간: 20일 06시부터 21일 12시까지 (UTC)
여러 방향의 바람 5kt
시정 10km 이상
고도 4500ft 상공 구름 보통
확률 40% :
일시적
20일 06시부터 20일 10시까지 (UTC)
고도 4500ft 상공 구름 보통, 타워링 적운.
일시적
20일 10시부터 20일 15시까지 (UTC)
남남동10kt, 순간 최대 풍속 20kt
고도 4000ft 상공 구름 조금, 타워링 적운.
확률 40% :
일시적
20일 15시부터 20일 18시까지 (UTC)
10kt
고도 4000ft 상공 구름 보통, 타워링 적운.
소나기

TAF: LEMD 200500Z 2006/2112 VRB05KT 9999 SCT045 TX23/2015Z TN12/2105Z PROB40 TEMPO 2006/2010 SCT045TCU TEMPO 2010/2015 15010G20KT FEW040TCU PROB40 TEMPO 2015/2018 01010KT SHRA SCT040TCU

4,000개 이상의 공항 관측 자료 및 예보 (METAR 및 TAF 보고).

지도상에서 검색 가능한 기상관측소가 노란 점과 빨간 점으로 표시되어 있습니다.

기상관측소 명을 보려면 표시 위로 마우스를 이동하세요.

날씨 관측과 예보를 보려면 클릭하세요.

지도 변경 : 확대하려면 엑스 표시가 있는 녹색 버튼, 축소하려면 빼기 표시가 있는 녹색 버튼, 다음 페이지의 지도를 보려면 녹색 화살표를 클릭하세요.


METAR-TAF: